Terminal Aerodrome Forecast
Issued by NWS Shreveport, LA

Home | Current Version | Previous Version | Text Only | Print | Product List | Glossary On
Versions: 1 2 3 4 5 6 7 8 9 10 11 12 13 14
000
FTUS44 KSHV 281136
TAFMLU
TAF
KMLU 281136Z 2812/2912 21006KT P6SM SCT120 BKN250
     FM281500 25010KT P6SM SCT120 BKN250
     FM281700 26010KT P6SM SCT040 SCT120 BKN250
     FM290000 24007KT P6SM SCT050 BKN080 BKN250
     FM290600 VRB04KT P6SM VCTS BKN050CB OVC080=

USA.gov is the U.S. government's official web portal to all federal, state and local government web resources and services.